Time;durP1;ratioP1;P1;durP2;ratioP2;P2;SDS_P1;SDS_P2;PMS_P1;PMS_P2;Temp;Humidity;BMP_temperature;BMP_pressure;BME280_temperature;BME280_humidity;BME280_pressure;Samples;Min_cycle;Max_cycle;Signal;HPM_P1;HPM_P2
2021/03/09 00:01:50;;;;;;;6.95;2.75;;;;;;;;;;5034748;28;20041;-58
2021/03/09 00:04:16;;;;;;;8.20;2.63;;;;;;;;;;5016237;28;20522;-58
2021/03/09 00:06:42;;;;;;;6.63;2.50;;;;;;;;;;5031900;28;20523;-58
2021/03/09 00:09:08;;;;;;;10.00;2.58;;;;;;;;;;5033190;28;20041;-56
2021/03/09 00:11:33;;;;;;;6.90;2.78;;;;;;;;;;5016336;28;20026;-58
2021/03/09 00:13:59;;;;;;;11.13;2.85;;;;;;;;;;5034594;28;20127;-58
2021/03/09 00:16:25;;;;;;;10.18;3.50;;;;;;;;;;5031902;28;20568;-58
2021/03/09 00:18:51;;;;;;;7.35;2.80;;;;;;;;;;5032211;28;20049;-59
2021/03/09 00:21:17;;;;;;;7.78;3.67;;;;;;;;;;5033229;28;20074;-55
2021/03/09 00:23:43;;;;;;;11.15;5.32;;;;;;;;;;5032381;28;20033;-57
2021/03/09 00:26:09;;;;;;;9.00;3.95;;;;;;;;;;5033982;28;20119;-58
2021/03/09 00:28:35;;;;;;;5.20;2.60;;;;;;;;;;5032881;28;20087;-57
2021/03/09 00:31:00;;;;;;;4.47;2.47;;;;;;;;;;5030449;28;20045;-57
2021/03/09 00:33:27;;;;;;;7.72;2.45;;;;;;;;;;5033848;28;20462;-59
2021/03/09 00:35:53;;;;;;;3.72;2.03;;;;;;;;;;5034318;28;20145;-58
2021/03/09 00:38:19;;;;;;;6.63;2.50;;;;;;;;;;5031001;28;20049;-59
2021/03/09 00:40:45;;;;;;;5.15;1.60;;;;;;;;;;5034397;28;20048;-59
2021/03/09 00:43:11;;;;;;;4.25;1.67;;;;;;;;;;5034053;28;20040;-57
2021/03/09 00:45:37;;;;;;;5.63;1.90;;;;;;;;;;5033507;28;20039;-59
2021/03/09 00:48:03;;;;;;;5.53;1.70;;;;;;;;;;5033052;28;20036;-56
2021/03/09 00:50:29;;;;;;;6.97;1.85;;;;;;;;;;5033342;28;20037;-57
2021/03/09 00:52:55;;;;;;;4.47;1.70;;;;;;;;;;5033392;28;20056;-56
2021/03/09 00:55:20;;;;;;;4.13;1.77;;;;;;;;;;5030540;28;20034;-58
2021/03/09 00:57:56;;;;;;;6.22;1.95;;;;;;;;;;5032627;28;20061;-56
2021/03/09 01:00:22;;;;;;;9.80;1.85;;;;;;;;;;5014422;28;20040;-57
2021/03/09 01:02:48;;;;;;;5.60;1.70;;;;;;;;;;5032380;28;20346;-58
2021/03/09 01:05:14;;;;;;;4.57;1.70;;;;;;;;;;5032309;28;20036;-57
2021/03/09 01:07:40;;;;;;;4.75;1.63;;;;;;;;;;5031293;28;20041;-57
2021/03/09 01:10:07;;;;;;;5.47;1.80;;;;;;;;;;5030804;28;20046;-57
2021/03/09 01:12:33;;;;;;;6.30;1.58;;;;;;;;;;5032001;28;20029;-55
2021/03/09 01:15:01;;;;;;;8.13;2.20;;;;;;;;;;5014413;28;20555;-56
2021/03/09 01:17:27;;;;;;;7.30;2.15;;;;;;;;;;5031356;28;20545;-56
2021/03/09 01:19:53;;;;;;;7.00;1.60;;;;;;;;;;5031641;28;20063;-58
2021/03/09 01:22:19;;;;;;;5.60;1.90;;;;;;;;;;5029419;28;20071;-57
2021/03/09 01:24:44;;;;;;;10.02;1.92;;;;;;;;;;5011266;28;20036;-56
2021/03/09 01:27:11;;;;;;;8.00;1.85;;;;;;;;;;5024695;28;20045;-57
2021/03/09 01:29:37;;;;;;;6.45;2.10;;;;;;;;;;5030109;28;20033;-56
2021/03/09 01:32:04;;;;;;;8.57;2.38;;;;;;;;;;5032127;28;20033;-56
2021/03/09 01:34:30;;;;;;;12.77;2.75;;;;;;;;;;5030093;28;20488;-57
2021/03/09 01:36:55;;;;;;;8.75;2.15;;;;;;;;;;5031007;28;20063;-57
2021/03/09 01:39:21;;;;;;;8.82;2.13;;;;;;;;;;5027510;28;20049;-58
2021/03/09 01:41:48;;;;;;;10.63;2.20;;;;;;;;;;5028928;28;20088;-57
2021/03/09 01:44:13;;;;;;;10.45;2.00;;;;;;;;;;5028288;28;20071;-58
2021/03/09 01:46:41;;;;;;;11.10;2.13;;;;;;;;;;5026189;28;20041;-58
2021/03/09 01:49:07;;;;;;;11.93;2.65;;;;;;;;;;5028563;28;20498;-55
2021/03/09 01:51:33;;;;;;;5.25;2.00;;;;;;;;;;5029326;28;20071;-57
2021/03/09 01:53:59;;;;;;;12.40;2.83;;;;;;;;;;5030139;28;20036;-57
2021/03/09 01:56:26;;;;;;;10.30;3.33;;;;;;;;;;5009492;28;20040;-56
2021/03/09 01:58:53;;;;;;;8.00;2.42;;;;;;;;;;5027536;28;20045;-57
2021/03/09 02:01:20;;;;;;;11.27;2.50;;;;;;;;;;5010723;28;20053;-57
2021/03/09 02:03:46;;;;;;;9.15;2.53;;;;;;;;;;5029876;28;20782;-58
2021/03/09 02:06:13;;;;;;;9.68;3.03;;;;;;;;;;5028315;28;20037;-56
2021/03/09 02:08:39;;;;;;;8.63;2.28;;;;;;;;;;5028253;28;20073;-56
2021/03/09 02:11:09;;;;;;;4.63;1.88;;;;;;;;;;5026904;28;20044;-57
2021/03/09 02:13:40;;;;;;;8.30;2.30;;;;;;;;;;5028176;28;20461;-57
2021/03/09 02:16:13;;;;;;;4.35;1.80;;;;;;;;;;5030859;28;20045;-53
2021/03/09 02:18:47;;;;;;;7.05;1.83;;;;;;;;;;5007526;28;20049;-58
2021/03/09 02:21:14;;;;;;;5.03;1.60;;;;;;;;;;5029106;28;20354;-56
2021/03/09 02:23:45;;;;;;;5.32;1.50;;;;;;;;;;5027308;28;20040;-56
2021/03/09 02:26:31;;;;;;;5.38;1.50;;;;;;;;;;5029971;28;20072;-58
2021/03/09 02:29:15;;;;;;;7.72;1.70;;;;;;;;;;5030319;28;20099;-58
2021/03/09 02:31:43;;;;;;;8.07;1.83;;;;;;;;;;5031505;28;20037;-58
2021/03/09 02:34:10;;;;;;;4.78;1.63;;;;;;;;;;5030212;28;20051;-57
2021/03/09 02:36:37;;;;;;;7.20;1.88;;;;;;;;;;5029378;28;20092;-56
2021/03/09 02:39:16;;;;;;;6.10;1.70;;;;;;;;;;5032639;28;20092;-57
2021/03/09 02:41:48;;;;;;;5.47;1.50;;;;;;;;;;5018509;28;20037;-60
2021/03/09 02:44:16;;;;;;;6.25;1.50;;;;;;;;;;5033531;28;20099;-58
2021/03/09 02:46:44;;;;;;;7.35;1.70;;;;;;;;;;5032377;28;20044;-59
2021/03/09 02:49:11;;;;;;;6.88;3.03;;;;;;;;;;5035210;28;20094;-54
2021/03/09 02:51:41;;;;;;;5.00;1.90;;;;;;;;;;5033008;28;20048;-58
2021/03/09 02:54:08;;;;;;;6.25;1.70;;;;;;;;;;5033143;28;20079;-57
2021/03/09 02:56:35;;;;;;;7.20;2.15;;;;;;;;;;5034819;28;20059;-59
2021/03/09 02:59:06;;;;;;;3.85;1.95;;;;;;;;;;5031838;28;20558;-58
2021/03/09 03:01:33;;;;;;;4.65;2.00;;;;;;;;;;5014510;28;20128;-54
2021/03/09 03:03:59;;;;;;;3.67;1.77;;;;;;;;;;5029394;28;20045;-59
2021/03/09 03:06:29;;;;;;;4.28;2.28;;;;;;;;;;5031580;28;20051;-59
2021/03/09 03:08:56;;;;;;;6.20;2.40;;;;;;;;;;5034025;28;20045;-58
2021/03/09 03:11:26;;;;;;;6.47;2.95;;;;;;;;;;5031657;28;20145;-57
2021/03/09 03:13:53;;;;;;;4.95;3.08;;;;;;;;;;5035122;28;20041;-59
2021/03/09 03:16:20;;;;;;;6.93;3.53;;;;;;;;;;5032431;28;20048;-58
2021/03/09 03:18:46;;;;;;;7.43;3.40;;;;;;;;;;5031324;28;20053;-58
2021/03/09 03:21:13;;;;;;;6.55;3.53;;;;;;;;;;5034198;28;20065;-56
2021/03/09 03:23:40;;;;;;;7.15;3.88;;;;;;;;;;5034185;28;20132;-58
2021/03/09 03:26:08;;;;;;;9.55;5.35;;;;;;;;;;5032723;28;20045;-58
2021/03/09 03:28:34;;;;;;;10.23;6.47;;;;;;;;;;5032277;28;20682;-60
2021/03/09 03:31:03;;;;;;;10.15;7.45;;;;;;;;;;5034813;28;20037;-59
2021/03/09 03:33:29;;;;;;;13.20;9.15;;;;;;;;;;5033533;28;20555;-59
2021/03/09 03:36:03;;;;;;;13.85;10.07;;;;;;;;;;5034159;28;20052;-58
2021/03/09 03:38:29;;;;;;;17.48;13.20;;;;;;;;;;5032912;28;20057;-57
2021/03/09 03:40:55;;;;;;;16.83;11.13;;;;;;;;;;5034296;28;20140;-57
2021/03/09 03:43:21;;;;;;;13.90;10.90;;;;;;;;;;5026853;28;20045;-56
2021/03/09 03:45:47;;;;;;;17.30;12.85;;;;;;;;;;5033707;28;20091;-58
2021/03/09 03:48:13;;;;;;;15.35;10.63;;;;;;;;;;5032593;28;20045;-54
2021/03/09 03:50:39;;;;;;;13.52;9.38;;;;;;;;;;5033135;28;20045;-58
2021/03/09 03:53:25;;;;;;;13.50;9.70;;;;;;;;;;5015995;28;20033;-57
2021/03/09 03:55:51;;;;;;;15.73;9.38;;;;;;;;;;5033111;28;20770;-58
2021/03/09 03:58:27;;;;;;;16.55;10.60;;;;;;;;;;5033796;28;20045;-57
2021/03/09 04:00:53;;;;;;;16.73;10.40;;;;;;;;;;5032156;28;20041;-58
2021/03/09 04:03:20;;;;;;;12.50;8.98;;;;;;;;;;5031416;28;21072;-53
2021/03/09 04:05:48;;;;;;;15.57;9.52;;;;;;;;;;5033740;28;20077;-58
2021/03/09 04:08:14;;;;;;;18.25;11.38;;;;;;;;;;5032639;28;20036;-55
2021/03/09 04:10:41;;;;;;;15.23;9.07;;;;;;;;;;5034788;28;20478;-57
2021/03/09 04:13:07;;;;;;;13.73;7.85;;;;;;;;;;5011349;28;20514;-57
2021/03/09 04:15:34;;;;;;;11.40;7.68;;;;;;;;;;5032429;28;20033;-57
2021/03/09 04:18:02;;;;;;;12.88;8.13;;;;;;;;;;5034459;28;20045;-55
2021/03/09 04:20:28;;;;;;;11.20;7.63;;;;;;;;;;5013687;28;20045;-57
2021/03/09 04:22:55;;;;;;;10.00;6.50;;;;;;;;;;5035139;28;20045;-56
2021/03/09 04:25:21;;;;;;;9.73;6.70;;;;;;;;;;5032389;28;20541;-57
2021/03/09 04:27:47;;;;;;;9.90;5.85;;;;;;;;;;5033367;28;20045;-56
2021/03/09 04:30:13;;;;;;;9.38;6.30;;;;;;;;;;5033605;28;20130;-56
2021/03/09 04:32:39;;;;;;;8.40;5.70;;;;;;;;;;5030606;28;20124;-58
2021/03/09 04:35:06;;;;;;;10.68;5.90;;;;;;;;;;5031448;28;20137;-56
2021/03/09 04:37:32;;;;;;;8.85;5.63;;;;;;;;;;5031880;28;20129;-56
2021/03/09 04:39:58;;;;;;;8.23;5.30;;;;;;;;;;5030480;28;20044;-56
2021/03/09 04:42:24;;;;;;;8.07;5.20;;;;;;;;;;5029503;28;20489;-55
2021/03/09 04:44:51;;;;;;;7.35;4.38;;;;;;;;;;5032972;28;20045;-56
2021/03/09 04:47:17;;;;;;;8.00;5.10;;;;;;;;;;5007590;28;20548;-58
2021/03/09 04:49:44;;;;;;;7.88;5.18;;;;;;;;;;5028803;28;20095;-57
2021/03/09 04:52:11;;;;;;;7.82;4.68;;;;;;;;;;5031138;28;20033;-60
2021/03/09 04:54:37;;;;;;;7.78;4.85;;;;;;;;;;5028237;28;20263;-55
2021/03/09 04:57:03;;;;;;;9.40;4.68;;;;;;;;;;5030187;28;20037;-54
2021/03/09 04:59:29;;;;;;;8.32;5.40;;;;;;;;;;5027935;28;20671;-56
2021/03/09 05:01:55;;;;;;;8.90;5.32;;;;;;;;;;5030300;28;20184;-55
2021/03/09 05:04:21;;;;;;;7.75;4.88;;;;;;;;;;5029870;28;20065;-57
2021/03/09 05:06:47;;;;;;;7.28;4.55;;;;;;;;;;5028783;28;20124;-58
2021/03/09 05:09:13;;;;;;;7.28;4.30;;;;;;;;;;5028897;28;20045;-58
2021/03/09 05:11:39;;;;;;;8.05;4.90;;;;;;;;;;5032212;28;20044;-57
2021/03/09 05:14:05;;;;;;;6.80;4.35;;;;;;;;;;5030065;28;20044;-57
2021/03/09 05:16:31;;;;;;;8.23;4.32;;;;;;;;;;5030212;28;20064;-58
2021/03/09 05:18:57;;;;;;;6.38;4.25;;;;;;;;;;5014667;28;20138;-57
2021/03/09 05:21:22;;;;;;;6.15;4.07;;;;;;;;;;5029914;28;20033;-58
2021/03/09 05:23:48;;;;;;;8.93;5.40;;;;;;;;;;5031631;28;20069;-57
2021/03/09 05:26:14;;;;;;;7.82;5.63;;;;;;;;;;5031705;28;20198;-58
2021/03/09 05:28:40;;;;;;;8.63;5.53;;;;;;;;;;5031558;28;20120;-57
2021/03/09 05:31:06;;;;;;;8.10;5.55;;;;;;;;;;5034651;28;20056;-58
2021/03/09 05:33:32;;;;;;;7.60;5.07;;;;;;;;;;5034917;28;20029;-56
2021/03/09 05:35:58;;;;;;;7.80;5.68;;;;;;;;;;5031954;28;20048;-57
2021/03/09 05:38:24;;;;;;;8.60;5.32;;;;;;;;;;5031008;28;20161;-57
2021/03/09 05:40:50;;;;;;;8.35;4.97;;;;;;;;;;5031930;28;20045;-58
2021/03/09 05:43:16;;;;;;;8.40;5.18;;;;;;;;;;5033567;28;20040;-56
2021/03/09 05:45:42;;;;;;;7.28;4.88;;;;;;;;;;5013814;28;20134;-57
2021/03/09 05:48:09;;;;;;;8.18;4.88;;;;;;;;;;5033109;28;20398;-52
2021/03/09 05:50:35;;;;;;;11.10;5.55;;;;;;;;;;5019703;28;20067;-58
2021/03/09 05:53:01;;;;;;;7.05;4.47;;;;;;;;;;5012300;28;21869;-58
2021/03/09 05:55:27;;;;;;;8.60;5.45;;;;;;;;;;5012040;28;20087;-57
2021/03/09 05:57:53;;;;;;;8.05;4.85;;;;;;;;;;5013084;28;20065;-57
2021/03/09 06:00:19;;;;;;;8.05;5.00;;;;;;;;;;4995581;28;20056;-56
2021/03/09 06:02:45;;;;;;;7.28;4.78;;;;;;;;;;4991798;28;20064;-59
2021/03/09 06:05:12;;;;;;;11.35;4.88;;;;;;;;;;5015204;28;20503;-58
2021/03/09 06:07:38;;;;;;;7.95;5.53;;;;;;;;;;5011722;28;20359;-58
2021/03/09 06:10:05;;;;;;;9.60;5.65;;;;;;;;;;5011848;28;20030;-58
2021/03/09 06:12:31;;;;;;;12.30;6.10;;;;;;;;;;5012712;28;20033;-57
2021/03/09 06:15:00;;;;;;;10.60;5.95;;;;;;;;;;5016041;28;20038;-57
2021/03/09 06:17:30;;;;;;;12.23;6.10;;;;;;;;;;5016548;28;20056;-57
2021/03/09 06:19:57;;;;;;;12.05;7.18;;;;;;;;;;5017527;28;20050;-56
2021/03/09 06:22:38;;;;;;;11.40;7.13;;;;;;;;;;5015449;28;20035;-59
2021/03/09 06:25:05;;;;;;;12.02;6.90;;;;;;;;;;5016752;28;20605;-56
2021/03/09 06:27:32;;;;;;;17.08;10.43;;;;;;;;;;5015751;28;20148;-54
2021/03/09 06:29:58;;;;;;;17.08;10.50;;;;;;;;;;5015989;28;20459;-57
2021/03/09 06:32:24;;;;;;;17.70;10.90;;;;;;;;;;5016398;28;20414;-58
2021/03/09 06:34:52;;;;;;;21.80;13.00;;;;;;;;;;5017277;28;20044;-58
2021/03/09 06:37:22;;;;;;;21.42;12.82;;;;;;;;;;5016422;28;20033;-57
2021/03/09 06:39:51;;;;;;;31.92;20.15;;;;;;;;;;4988241;28;20049;-57
2021/03/09 06:42:19;;;;;;;96.68;19.92;;;;;;;;;;5016787;28;20494;-57
2021/03/09 06:44:49;;;;;;;408.85;29.90;;;;;;;;;;4998276;28;20038;-57
2021/03/09 06:47:15;;;;;;;550.95;38.17;;;;;;;;;;5016937;28;20080;-57
2021/03/09 06:49:48;;;;;;;480.95;34.80;;;;;;;;;;5018473;28;20054;-56
2021/03/09 06:52:14;;;;;;;396.10;28.67;;;;;;;;;;5036949;28;20083;-57
2021/03/09 06:54:51;;;;;;;546.67;34.33;;;;;;;;;;5035744;28;20033;-56
2021/03/09 06:57:17;;;;;;;596.55;43.45;;;;;;;;;;5035797;28;20041;-56
2021/03/09 06:59:44;;;;;;;610.25;42.08;;;;;;;;;;5036291;28;20060;-56
2021/03/09 07:02:13;;;;;;;456.88;38.92;;;;;;;;;;5037341;28;20037;-58
2021/03/09 07:04:43;;;;;;;414.58;33.45;;;;;;;;;;5034589;28;20047;-54
2021/03/09 07:07:10;;;;;;;333.35;31.75;;;;;;;;;;5036862;28;20037;-57
2021/03/09 07:09:36;;;;;;;418.70;36.70;;;;;;;;;;5037706;28;20037;-57
2021/03/09 07:12:03;;;;;;;419.67;35.03;;;;;;;;;;5036792;28;20103;-58
2021/03/09 07:14:32;;;;;;;402.83;35.75;;;;;;;;;;5036762;28;20033;-56
2021/03/09 07:17:03;;;;;;;330.60;34.90;;;;;;;;;;5036040;28;20520;-57
2021/03/09 07:19:34;;;;;;;317.15;31.73;;;;;;;;;;5033381;28;20159;-57
2021/03/09 07:22:01;;;;;;;156.35;23.88;;;;;;;;;;5033885;28;20064;-57
2021/03/09 07:24:27;;;;;;;244.95;28.08;;;;;;;;;;5033211;28;20045;-57
2021/03/09 07:26:55;;;;;;;217.25;25.25;;;;;;;;;;5035045;28;20041;-57
2021/03/09 07:29:22;;;;;;;190.07;24.55;;;;;;;;;;5035032;28;20546;-53
2021/03/09 07:31:49;;;;;;;115.05;23.95;;;;;;;;;;5035397;28;20148;-57
2021/03/09 07:34:16;;;;;;;184.27;25.50;;;;;;;;;;5035202;28;20130;-56
2021/03/09 07:36:42;;;;;;;180.25;25.95;;;;;;;;;;5011538;28;20029;-58
2021/03/09 07:39:08;;;;;;;130.00;23.80;;;;;;;;;;5034682;28;20094;-56
2021/03/09 07:41:35;;;;;;;182.90;24.38;;;;;;;;;;5033149;28;20068;-57
2021/03/09 07:44:01;;;;;;;193.80;25.95;;;;;;;;;;5034822;28;20148;-57
2021/03/09 07:46:27;;;;;;;180.40;22.48;;;;;;;;;;5034438;28;20025;-56
2021/03/09 07:48:54;;;;;;;159.23;22.70;;;;;;;;;;5035049;28;20123;-56
2021/03/09 07:51:21;;;;;;;248.70;28.83;;;;;;;;;;5034161;28;20053;-58
2021/03/09 07:54:05;;;;;;;321.45;31.10;;;;;;;;;;5018885;28;20032;-58
2021/03/09 07:56:31;;;;;;;170.02;24.42;;;;;;;;;;5018274;28;20029;-57
2021/03/09 07:59:09;;;;;;;320.60;31.20;;;;;;;;;;5034363;28;20055;-56
2021/03/09 08:01:45;;;;;;;382.88;34.75;;;;;;;;;;5034040;28;20102;-57
2021/03/09 08:04:11;;;;;;;311.42;30.85;;;;;;;;;;5034995;28;20428;-58
2021/03/09 08:06:43;;;;;;;263.15;27.20;;;;;;;;;;5032981;28;20095;-58
2021/03/09 08:09:28;;;;;;;295.02;30.30;;;;;;;;;;5034202;28;20120;-58
2021/03/09 08:11:54;;;;;;;264.15;26.80;;;;;;;;;;5033473;28;20175;-57
2021/03/09 08:14:20;;;;;;;230.32;26.08;;;;;;;;;;5027254;28;20839;-58
2021/03/09 08:16:47;;;;;;;377.88;30.70;;;;;;;;;;5033187;28;20044;-56
2021/03/09 08:19:25;;;;;;;135.30;23.23;;;;;;;;;;5033297;28;20048;-58
2021/03/09 08:21:58;;;;;;;224.60;24.27;;;;;;;;;;5035065;28;20064;-56
2021/03/09 08:24:42;;;;;;;141.50;21.48;;;;;;;;;;5037245;28;20037;-57
2021/03/09 08:27:27;;;;;;;161.43;22.00;;;;;;;;;;5034684;28;20056;-57
2021/03/09 08:29:53;;;;;;;290.45;27.80;;;;;;;;;;5032716;28;20053;-57
2021/03/09 08:32:31;;;;;;;167.45;21.88;;;;;;;;;;5033454;28;20048;-58
2021/03/09 08:35:12;;;;;;;108.43;21.30;;;;;;;;;;5033104;28;20055;-57
2021/03/09 08:37:42;;;;;;;246.05;26.25;;;;;;;;;;5032243;28;20115;-55
2021/03/09 08:40:10;;;;;;;121.60;20.88;;;;;;;;;;5032017;28;20175;-54
2021/03/09 08:42:54;;;;;;;237.30;27.00;;;;;;;;;;5033420;28;20095;-57
2021/03/09 08:45:46;;;;;;;260.65;27.92;;;;;;;;;;5034041;28;20041;-57
2021/03/09 08:48:12;;;;;;;85.50;21.92;;;;;;;;;;5017668;28;20544;-57
2021/03/09 08:50:45;;;;;;;89.93;22.15;;;;;;;;;;5027130;28;20086;-58
2021/03/09 08:53:26;;;;;;;87.57;22.90;;;;;;;;;;5034015;28;20098;-58
2021/03/09 08:55:57;;;;;;;121.85;25.95;;;;;;;;;;5033622;28;20063;-58
2021/03/09 08:58:23;;;;;;;193.93;27.77;;;;;;;;;;5031330;28;20063;-57
2021/03/09 09:00:49;;;;;;;97.45;22.77;;;;;;;;;;5031953;28;20040;-57
2021/03/09 09:03:34;;;;;;;131.73;23.50;;;;;;;;;;5032822;28;20060;-57
2021/03/09 09:06:00;;;;;;;93.15;20.30;;;;;;;;;;5032167;28;20041;-58
2021/03/09 09:08:26;;;;;;;92.20;21.95;;;;;;;;;;5033299;28;20048;-57
2021/03/09 09:10:52;;;;;;;99.57;23.02;;;;;;;;;;5032343;28;20040;-58
2021/03/09 09:13:39;;;;;;;221.32;27.15;;;;;;;;;;5033136;28;20040;-57
2021/03/09 09:16:16;;;;;;;169.85;25.38;;;;;;;;;;5033578;28;20033;-58
2021/03/09 09:18:42;;;;;;;80.00;20.95;;;;;;;;;;5032268;28;20065;-57
2021/03/09 09:21:08;;;;;;;147.07;23.70;;;;;;;;;;5032230;28;20041;-58
2021/03/09 09:23:35;;;;;;;69.93;21.23;;;;;;;;;;5027985;28;20111;-58
2021/03/09 09:26:01;;;;;;;87.28;22.48;;;;;;;;;;5033456;28;20528;-57
2021/03/09 09:28:41;;;;;;;101.82;22.27;;;;;;;;;;5033736;28;20044;-58
2021/03/09 09:31:07;;;;;;;76.00;19.77;;;;;;;;;;5033103;28;20041;-57
2021/03/09 09:33:33;;;;;;;73.57;20.95;;;;;;;;;;5032044;28;20063;-58
2021/03/09 09:35:59;;;;;;;73.43;18.67;;;;;;;;;;5031131;28;20195;-58
2021/03/09 09:38:25;;;;;;;50.72;17.67;;;;;;;;;;5030090;28;20055;-58
2021/03/09 09:40:53;;;;;;;65.88;20.23;;;;;;;;;;5033836;28;20040;-59
2021/03/09 09:43:19;;;;;;;63.40;19.80;;;;;;;;;;5032187;28;20029;-58
2021/03/09 09:45:49;;;;;;;64.68;19.77;;;;;;;;;;5030591;28;20037;-58
2021/03/09 09:48:20;;;;;;;59.97;19.73;;;;;;;;;;5031181;28;20044;-58
2021/03/09 09:50:47;;;;;;;86.53;22.38;;;;;;;;;;5031807;28;20068;-58
2021/03/09 09:53:13;;;;;;;75.40;21.38;;;;;;;;;;5032880;28;20082;-58
2021/03/09 09:55:39;;;;;;;50.78;18.55;;;;;;;;;;5030339;28;20041;-57
2021/03/09 09:58:05;;;;;;;60.92;19.38;;;;;;;;;;5026824;28;20395;-57
2021/03/09 10:00:32;;;;;;;60.20;19.35;;;;;;;;;;5034222;28;20128;-55
2021/03/09 10:03:14;;;;;;;52.25;18.80;;;;;;;;;;5023606;28;20048;-58
2021/03/09 10:05:41;;;;;;;56.17;18.40;;;;;;;;;;5032223;28;20148;-58
2021/03/09 10:08:07;;;;;;;52.15;18.15;;;;;;;;;;5033342;28;20375;-57
2021/03/09 10:10:34;;;;;;;47.08;17.52;;;;;;;;;;5033989;28;20063;-56
2021/03/09 10:13:00;;;;;;;51.63;17.60;;;;;;;;;;5032970;28;20099;-56
2021/03/09 10:15:45;;;;;;;50.80;18.20;;;;;;;;;;5030967;28;20293;-57
2021/03/09 10:18:15;;;;;;;51.42;16.98;;;;;;;;;;5032427;28;20037;-56
2021/03/09 10:20:42;;;;;;;49.92;18.08;;;;;;;;;;5032059;28;20037;-55
2021/03/09 10:23:08;;;;;;;53.10;19.38;;;;;;;;;;5033024;28;20037;-57
2021/03/09 10:25:38;;;;;;;48.95;18.08;;;;;;;;;;5031203;28;20049;-53
2021/03/09 10:28:04;;;;;;;51.00;18.83;;;;;;;;;;5031960;28;20821;-54
2021/03/09 10:30:37;;;;;;;46.53;18.67;;;;;;;;;;5029742;28;20037;-57
2021/03/09 10:33:07;;;;;;;51.75;18.23;;;;;;;;;;5033266;28;20041;-56
2021/03/09 10:35:33;;;;;;;52.72;18.25;;;;;;;;;;5031180;28;20673;-57
2021/03/09 10:37:59;;;;;;;51.03;18.67;;;;;;;;;;5031895;28;20096;-55
2021/03/09 10:40:31;;;;;;;46.67;19.08;;;;;;;;;;5030913;28;20155;-57
2021/03/09 10:42:58;;;;;;;46.22;17.45;;;;;;;;;;5031531;28;20040;-57
2021/03/09 10:45:24;;;;;;;54.33;19.55;;;;;;;;;;5030554;28;20041;-54
2021/03/09 10:47:53;;;;;;;47.42;17.67;;;;;;;;;;5031873;28;20132;-56
2021/03/09 10:50:23;;;;;;;49.08;18.90;;;;;;;;;;5024150;28;20041;-57
2021/03/09 10:52:50;;;;;;;46.17;17.75;;;;;;;;;;5015438;28;20231;-57
2021/03/09 10:55:16;;;;;;;42.67;17.52;;;;;;;;;;5015097;28;20033;-55
2021/03/09 10:57:42;;;;;;;46.70;17.98;;;;;;;;;;5013504;28;20124;-57
2021/03/09 11:00:10;;;;;;;47.58;18.23;;;;;;;;;;5014567;28;20131;-56
2021/03/09 11:02:35;;;;;;;51.95;19.05;;;;;;;;;;4996166;28;20044;-55
2021/03/09 11:05:01;;;;;;;52.97;21.27;;;;;;;;;;5019457;28;20041;-56
2021/03/09 11:07:27;;;;;;;50.90;19.83;;;;;;;;;;5017541;28;20160;-57
2021/03/09 11:09:53;;;;;;;51.95;20.20;;;;;;;;;;5018157;28;20103;-56
2021/03/09 11:12:19;;;;;;;54.10;19.88;;;;;;;;;;5019040;28;20541;-57
2021/03/09 11:14:45;;;;;;;56.40;21.48;;;;;;;;;;5018020;28;20461;-56
2021/03/09 11:17:11;;;;;;;53.92;21.02;;;;;;;;;;5018385;28;20089;-57
2021/03/09 11:19:37;;;;;;;54.97;20.98;;;;;;;;;;5019300;28;20908;-55
2021/03/09 11:22:02;;;;;;;56.35;22.85;;;;;;;;;;5020650;28;20858;-57
2021/03/09 11:24:28;;;;;;;52.25;20.23;;;;;;;;;;5018203;28;20041;-56
2021/03/09 11:26:59;;;;;;;57.13;22.10;;;;;;;;;;5018162;28;20049;-58
2021/03/09 11:29:26;;;;;;;54.30;22.10;;;;;;;;;;5017095;28;22014;-58
2021/03/09 11:31:52;;;;;;;54.33;21.50;;;;;;;;;;5016734;28;20041;-58
2021/03/09 11:34:17;;;;;;;54.13;22.60;;;;;;;;;;5017386;28;20084;-57
2021/03/09 11:36:43;;;;;;;49.80;20.45;;;;;;;;;;5017927;28;20120;-58
2021/03/09 11:39:09;;;;;;;50.13;21.05;;;;;;;;;;5019028;28;20050;-59
2021/03/09 11:41:35;;;;;;;49.28;20.95;;;;;;;;;;5017602;28;21118;-57
2021/03/09 11:44:01;;;;;;;51.08;21.20;;;;;;;;;;5018333;28;20455;-58
2021/03/09 11:46:26;;;;;;;51.22;22.85;;;;;;;;;;5016637;28;20048;-56
2021/03/09 11:48:52;;;;;;;48.08;21.40;;;;;;;;;;5019363;28;20041;-57
2021/03/09 11:51:18;;;;;;;51.38;22.30;;;;;;;;;;5030312;28;20068;-56
2021/03/09 11:53:44;;;;;;;44.97;22.35;;;;;;;;;;5034871;28;20045;-57
2021/03/09 11:56:10;;;;;;;50.67;24.50;;;;;;;;;;5032973;28;20091;-57
2021/03/09 11:58:36;;;;;;;49.08;22.88;;;;;;;;;;5034217;28;20053;-57
2021/03/09 12:01:02;;;;;;;44.13;21.55;;;;;;;;;;5039011;28;20492;-56
2021/03/09 12:03:28;;;;;;;48.17;22.75;;;;;;;;;;5013761;28;20555;-57
2021/03/09 12:05:54;;;;;;;46.78;23.05;;;;;;;;;;5035990;28;20079;-57
2021/03/09 12:08:20;;;;;;;47.50;23.15;;;;;;;;;;5033498;28;20108;-57
2021/03/09 12:10:45;;;;;;;45.53;23.15;;;;;;;;;;5028476;28;20045;-58
2021/03/09 12:13:11;;;;;;;40.33;21.80;;;;;;;;;;5034531;28;20041;-56
2021/03/09 12:15:37;;;;;;;40.22;22.35;;;;;;;;;;5033803;28;20044;-58
2021/03/09 12:18:03;;;;;;;44.55;23.77;;;;;;;;;;5033320;28;20036;-58
2021/03/09 12:20:29;;;;;;;42.88;23.13;;;;;;;;;;5033003;28;20033;-58
2021/03/09 12:22:55;;;;;;;38.33;22.17;;;;;;;;;;5011882;28;20041;-58
2021/03/09 12:25:21;;;;;;;42.35;23.88;;;;;;;;;;5032650;28;20934;-58
2021/03/09 12:27:47;;;;;;;38.70;21.42;;;;;;;;;;5034426;28;20044;-58
2021/03/09 12:30:13;;;;;;;37.72;21.15;;;;;;;;;;5035011;28;20044;-59
2021/03/09 12:32:39;;;;;;;36.22;20.92;;;;;;;;;;5031555;28;20111;-57
2021/03/09 12:35:06;;;;;;;34.53;20.25;;;;;;;;;;5032089;28;20124;-57
2021/03/09 12:37:32;;;;;;;34.60;20.95;;;;;;;;;;5032145;28;20107;-57
2021/03/09 12:39:59;;;;;;;37.38;21.00;;;;;;;;;;5031279;28;20148;-56
2021/03/09 12:42:25;;;;;;;33.78;21.25;;;;;;;;;;5032516;28;20029;-57
2021/03/09 12:44:51;;;;;;;35.85;21.40;;;;;;;;;;5033104;28;20119;-57
2021/03/09 12:47:17;;;;;;;34.35;20.00;;;;;;;;;;5033684;28;20502;-58
2021/03/09 12:49:43;;;;;;;39.15;22.08;;;;;;;;;;5033674;28;20046;-58
2021/03/09 12:52:09;;;;;;;43.33;21.58;;;;;;;;;;5034240;28;20045;-58
2021/03/09 12:54:35;;;;;;;35.92;20.73;;;;;;;;;;5033647;28;20051;-58
2021/03/09 12:57:01;;;;;;;37.40;22.25;;;;;;;;;;5033438;28;20469;-57
2021/03/09 12:59:27;;;;;;;35.13;20.70;;;;;;;;;;5033859;28;20080;-55
2021/03/09 13:01:53;;;;;;;37.47;20.73;;;;;;;;;;5033924;28;20851;-56
2021/03/09 13:04:19;;;;;;;36.70;22.15;;;;;;;;;;5034908;28;20064;-53
2021/03/09 13:06:45;;;;;;;37.83;22.17;;;;;;;;;;5032334;28;20498;-56
2021/03/09 13:09:10;;;;;;;37.33;20.83;;;;;;;;;;5033148;28;20122;-56
2021/03/09 13:11:36;;;;;;;40.05;22.23;;;;;;;;;;5031296;28;20410;-56
2021/03/09 13:14:02;;;;;;;42.88;24.90;;;;;;;;;;5032847;28;20041;-57
2021/03/09 13:16:28;;;;;;;41.17;22.17;;;;;;;;;;5031348;28;20595;-55
2021/03/09 13:18:54;;;;;;;44.25;23.17;;;;;;;;;;5032254;28;20055;-56
2021/03/09 13:21:20;;;;;;;38.83;22.55;;;;;;;;;;5031488;28;20128;-55
2021/03/09 13:23:46;;;;;;;42.67;23.58;;;;;;;;;;5032284;28;20513;-55
2021/03/09 13:26:13;;;;;;;40.65;22.52;;;;;;;;;;5032354;28;20024;-56
2021/03/09 13:28:39;;;;;;;40.55;23.02;;;;;;;;;;5029947;28;20037;-57
2021/03/09 13:31:05;;;;;;;43.45;23.92;;;;;;;;;;5032324;28;20045;-56
2021/03/09 13:33:31;;;;;;;41.38;24.25;;;;;;;;;;4999429;28;20029;-56
2021/03/09 13:35:57;;;;;;;43.80;22.88;;;;;;;;;;5032399;28;20028;-58
2021/03/09 13:38:23;;;;;;;38.72;21.58;;;;;;;;;;5033095;28;20084;-58
2021/03/09 13:40:49;;;;;;;43.45;23.48;;;;;;;;;;5033587;28;20029;-55
2021/03/09 13:43:15;;;;;;;40.70;23.38;;;;;;;;;;5031703;28;20087;-57
2021/03/09 13:45:41;;;;;;;45.17;25.35;;;;;;;;;;5031270;28;20045;-57
2021/03/09 13:48:07;;;;;;;45.00;24.60;;;;;;;;;;5034574;28;20048;-56
2021/03/09 13:50:33;;;;;;;45.55;24.33;;;;;;;;;;5032615;28;20076;-56
2021/03/09 13:52:59;;;;;;;43.28;23.52;;;;;;;;;;5034675;28;20056;-57
2021/03/09 13:55:25;;;;;;;42.08;23.50;;;;;;;;;;5031587;28;20095;-56
2021/03/09 13:57:51;;;;;;;46.78;24.02;;;;;;;;;;5033995;28;20041;-55
2021/03/09 14:00:17;;;;;;;47.03;24.42;;;;;;;;;;5033801;28;20045;-58
2021/03/09 14:02:43;;;;;;;41.40;22.35;;;;;;;;;;5030248;28;20114;-58
2021/03/09 14:05:11;;;;;;;39.40;22.23;;;;;;;;;;5013690;28;20052;-57
2021/03/09 14:07:37;;;;;;;39.20;22.23;;;;;;;;;;5033033;28;20044;-58
2021/03/09 14:10:03;;;;;;;41.22;22.77;;;;;;;;;;5031531;28;20425;-58
2021/03/09 14:12:29;;;;;;;38.97;20.88;;;;;;;;;;5032079;28;20103;-57
2021/03/09 14:14:55;;;;;;;40.33;22.63;;;;;;;;;;5034116;28;20073;-56
2021/03/09 14:17:22;;;;;;;43.42;23.05;;;;;;;;;;5031458;28;20129;-57
2021/03/09 14:19:48;;;;;;;42.13;22.30;;;;;;;;;;5033321;28;20054;-54
2021/03/09 14:22:14;;;;;;;40.38;21.90;;;;;;;;;;5031909;28;20110;-58
2021/03/09 14:24:40;;;;;;;39.30;21.55;;;;;;;;;;5031147;28;20048;-57
2021/03/09 14:27:06;;;;;;;37.83;21.58;;;;;;;;;;5031590;28;20709;-55